Time;durP1;ratioP1;P1;durP2;ratioP2;P2;SDS_P1;SDS_P2;PMS_P1;PMS_P2;Temp;Humidity;BMP_temperature;BMP_pressure;BME280_temperature;BME280_humidity;BME280_pressure;Samples;Min_cycle;Max_cycle;Signal;HPM_P1;HPM_P2
2022/03/03 00:01:34;;;;;;;39.10;24.80;;;;;;;;;;6038265;23;20880;-46
2022/03/03 00:03:59;;;;;;;38.92;24.60;;;;;;;;;;6041506;23;20007;-47
2022/03/03 00:06:25;;;;;;;39.20;24.25;;;;;;;;;;6038849;23;20019;-48
2022/03/03 00:08:50;;;;;;;44.95;25.15;;;;;;;;;;6017113;23;20011;-46
2022/03/03 00:11:15;;;;;;;39.25;23.48;;;;;;;;;;6039025;23;20019;-48
2022/03/03 00:13:41;;;;;;;45.40;25.58;;;;;;;;;;6040305;23;20023;-47
2022/03/03 00:16:07;;;;;;;43.90;24.55;;;;;;;;;;6042504;23;20011;-46
2022/03/03 00:18:33;;;;;;;46.20;25.60;;;;;;;;;;6018539;23;20026;-48
2022/03/03 00:20:58;;;;;;;39.75;24.63;;;;;;;;;;6041371;23;20011;-50
2022/03/03 00:23:23;;;;;;;46.58;26.40;;;;;;;;;;6016544;23;20072;-48
2022/03/03 00:25:48;;;;;;;45.85;25.60;;;;;;;;;;6043451;23;20027;-47
2022/03/03 00:28:14;;;;;;;50.63;26.42;;;;;;;;;;6016166;23;20020;-46
2022/03/03 00:30:39;;;;;;;45.10;25.40;;;;;;;;;;6043244;23;20477;-46
2022/03/03 00:33:04;;;;;;;48.72;27.35;;;;;;;;;;6040610;23;20016;-47
2022/03/03 00:35:30;;;;;;;50.30;29.42;;;;;;;;;;6043768;23;20044;-46
2022/03/03 00:37:55;;;;;;;43.08;27.10;;;;;;;;;;6041428;23;20027;-46
2022/03/03 00:40:21;;;;;;;48.67;28.17;;;;;;;;;;6043367;23;20031;-46
2022/03/03 00:42:46;;;;;;;49.10;29.10;;;;;;;;;;6042774;23;20022;-47
2022/03/03 00:45:11;;;;;;;46.55;27.45;;;;;;;;;;6044331;23;20020;-47
2022/03/03 00:47:37;;;;;;;50.35;28.45;;;;;;;;;;6042250;23;20018;-48
2022/03/03 00:50:04;;;;;;;56.08;28.48;;;;;;;;;;6040173;23;20017;-47
2022/03/03 00:52:29;;;;;;;57.75;31.13;;;;;;;;;;6040904;23;20015;-47
2022/03/03 00:54:54;;;;;;;55.90;30.00;;;;;;;;;;6044392;23;20012;-46
2022/03/03 00:57:19;;;;;;;57.30;29.88;;;;;;;;;;6040665;23;20015;-48
2022/03/03 00:59:45;;;;;;;56.65;30.58;;;;;;;;;;6044109;23;20483;-47
2022/03/03 01:02:10;;;;;;;58.85;31.60;;;;;;;;;;6041688;23;20651;-48
2022/03/03 01:04:35;;;;;;;55.08;28.50;;;;;;;;;;6042605;23;20039;-47
2022/03/03 01:07:01;;;;;;;49.65;26.95;;;;;;;;;;6041619;23;20073;-45
2022/03/03 01:09:26;;;;;;;58.00;28.80;;;;;;;;;;6042438;23;20030;-47
2022/03/03 01:11:51;;;;;;;49.80;27.35;;;;;;;;;;6041662;23;20333;-51
2022/03/03 01:14:21;;;;;;;47.90;27.48;;;;;;;;;;6041601;23;20041;-48
2022/03/03 01:16:46;;;;;;;;;;;;;;;;;;6042360;23;20075;-48
2022/03/03 01:19:11;;;;;;;54.92;29.15;;;;;;;;;;6042705;23;19906;-47
2022/03/03 01:21:36;;;;;;;55.67;31.17;;;;;;;;;;6042478;23;20062;-46
2022/03/03 01:24:02;;;;;;;53.72;29.85;;;;;;;;;;6041641;23;20059;-47
2022/03/03 01:26:27;;;;;;;46.70;28.23;;;;;;;;;;6041978;23;20048;-45
2022/03/03 01:28:52;;;;;;;58.42;31.63;;;;;;;;;;6043777;23;20027;-48
2022/03/03 01:31:18;;;;;;;52.95;28.75;;;;;;;;;;6042016;23;20128;-48
2022/03/03 01:33:43;;;;;;;51.40;28.63;;;;;;;;;;6042990;23;20015;-46
2022/03/03 01:36:08;;;;;;;46.42;27.63;;;;;;;;;;6040768;23;20019;-46
2022/03/03 01:38:34;;;;;;;51.33;29.52;;;;;;;;;;6043281;23;20067;-50
2022/03/03 01:40:59;;;;;;;57.03;29.33;;;;;;;;;;6040679;23;20019;-49
2022/03/03 01:43:24;;;;;;;53.40;29.02;;;;;;;;;;6043060;23;20004;-48
2022/03/03 01:45:49;;;;;;;51.65;30.73;;;;;;;;;;6041899;23;20443;-46
2022/03/03 01:48:14;;;;;;;61.47;29.50;;;;;;;;;;6042544;23;20030;-52
2022/03/03 01:50:40;;;;;;;52.55;30.05;;;;;;;;;;6041513;23;20023;-49
2022/03/03 01:53:06;;;;;;;53.42;28.85;;;;;;;;;;6043149;23;20011;-46
2022/03/03 01:55:31;;;;;;;53.22;29.88;;;;;;;;;;6039597;23;20007;-48
2022/03/03 01:57:58;;;;;;;55.03;29.65;;;;;;;;;;6043424;23;20015;-46
2022/03/03 02:00:23;;;;;;;50.10;28.40;;;;;;;;;;6039102;23;20031;-48
2022/03/03 02:02:48;;;;;;;56.50;28.92;;;;;;;;;;6043364;23;20078;-48
2022/03/03 02:05:14;;;;;;;59.40;30.55;;;;;;;;;;6041444;23;20015;-46
2022/03/03 02:07:39;;;;;;;58.25;30.92;;;;;;;;;;6042862;23;20007;-45
2022/03/03 02:10:05;;;;;;;54.30;29.30;;;;;;;;;;6039805;23;20015;-49
2022/03/03 02:12:30;;;;;;;52.88;29.05;;;;;;;;;;6042016;23;20047;-50
2022/03/03 02:14:56;;;;;;;52.30;30.67;;;;;;;;;;6041136;23;20457;-46
2022/03/03 02:17:21;;;;;;;52.38;30.52;;;;;;;;;;6041361;23;20019;-49
2022/03/03 02:19:47;;;;;;;58.65;33.65;;;;;;;;;;6041747;23;20011;-47
2022/03/03 02:22:12;;;;;;;54.13;29.98;;;;;;;;;;6036326;23;20008;-45
2022/03/03 02:24:38;;;;;;;57.88;32.30;;;;;;;;;;6041822;23;20068;-48
2022/03/03 02:27:04;;;;;;;55.85;31.02;;;;;;;;;;6016795;23;20015;-46
2022/03/03 02:29:29;;;;;;;59.72;30.60;;;;;;;;;;6041800;23;20026;-46
2022/03/03 02:31:55;;;;;;;61.50;32.15;;;;;;;;;;6039838;23;20087;-48
2022/03/03 02:34:20;;;;;;;56.28;29.95;;;;;;;;;;6041786;23;20369;-50
2022/03/03 02:36:45;;;;;;;60.20;33.60;;;;;;;;;;6041566;23;20030;-46
2022/03/03 02:39:10;;;;;;;59.50;34.17;;;;;;;;;;6042285;23;20044;-46
2022/03/03 02:41:37;;;;;;;62.60;33.03;;;;;;;;;;6016184;23;20627;-45
2022/03/03 02:44:03;;;;;;;57.15;33.15;;;;;;;;;;6041147;23;20030;-46
2022/03/03 02:46:28;;;;;;;59.33;33.45;;;;;;;;;;6041020;23;20027;-53
2022/03/03 02:48:54;;;;;;;67.25;36.08;;;;;;;;;;6041278;23;20022;-47
2022/03/03 02:51:19;;;;;;;70.35;35.13;;;;;;;;;;6042789;23;20055;-46
2022/03/03 02:53:44;;;;;;;61.15;34.35;;;;;;;;;;6040324;23;20007;-50
2022/03/03 02:56:10;;;;;;;71.50;36.50;;;;;;;;;;6042736;23;20011;-47
2022/03/03 02:58:35;;;;;;;65.53;34.47;;;;;;;;;;6040498;23;20018;-49
2022/03/03 03:01:01;;;;;;;74.07;36.90;;;;;;;;;;6042022;23;20014;-45
2022/03/03 03:03:27;;;;;;;66.32;34.67;;;;;;;;;;6040383;23;20023;-51
2022/03/03 03:05:52;;;;;;;69.72;35.22;;;;;;;;;;6041855;23;20012;-46
2022/03/03 03:08:18;;;;;;;64.35;35.60;;;;;;;;;;6041608;23;20019;-48
2022/03/03 03:10:43;;;;;;;65.18;34.47;;;;;;;;;;6042470;23;20020;-47
2022/03/03 03:13:14;;;;;;;62.42;34.95;;;;;;;;;;6031959;23;20031;-46
2022/03/03 03:15:39;;;;;;;59.00;32.63;;;;;;;;;;6040673;23;20016;-46
2022/03/03 03:18:11;;;;;;;61.78;33.00;;;;;;;;;;6042361;23;20042;-46
2022/03/03 03:20:37;;;;;;;63.78;34.45;;;;;;;;;;6039741;23;20011;-50
2022/03/03 03:23:03;;;;;;;65.78;34.60;;;;;;;;;;6041600;23;20047;-47
2022/03/03 03:25:28;;;;;;;72.15;35.90;;;;;;;;;;6042643;23;20019;-48
2022/03/03 03:27:53;;;;;;;74.25;36.38;;;;;;;;;;6040739;23;20012;-47
2022/03/03 03:30:18;;;;;;;64.05;34.65;;;;;;;;;;6041514;23;20026;-46
2022/03/03 03:32:44;;;;;;;57.65;35.67;;;;;;;;;;6039400;23;20031;-47
2022/03/03 03:35:09;;;;;;;66.07;33.83;;;;;;;;;;6043388;23;20030;-47
2022/03/03 03:37:36;;;;;;;70.28;35.15;;;;;;;;;;6043851;23;20462;-47
2022/03/03 03:40:02;;;;;;;60.72;33.67;;;;;;;;;;6043839;23;20007;-47
2022/03/03 03:42:28;;;;;;;60.45;34.55;;;;;;;;;;6044169;23;20019;-48
2022/03/03 03:44:53;;;;;;;65.22;33.83;;;;;;;;;;6043120;23;20815;-48
2022/03/03 03:47:18;;;;;;;62.22;34.92;;;;;;;;;;6043185;23;20016;-50
2022/03/03 03:49:43;;;;;;;63.70;35.63;;;;;;;;;;6041998;23;20022;-47
2022/03/03 03:52:09;;;;;;;66.07;34.40;;;;;;;;;;6043502;23;20027;-49
2022/03/03 03:54:34;;;;;;;71.13;36.20;;;;;;;;;;6017594;23;20733;-48
2022/03/03 03:56:59;;;;;;;65.93;35.42;;;;;;;;;;6042363;23;20062;-50
2022/03/03 03:59:25;;;;;;;58.40;32.35;;;;;;;;;;6040934;23;20261;-49
2022/03/03 04:01:50;;;;;;;68.68;35.17;;;;;;;;;;6039697;23;20007;-46
2022/03/03 04:04:16;;;;;;;60.13;33.95;;;;;;;;;;6041400;23;20063;-47
2022/03/03 04:06:41;;;;;;;65.22;34.67;;;;;;;;;;6040218;23;20057;-47
2022/03/03 04:09:06;;;;;;;58.97;32.17;;;;;;;;;;6040418;23;20601;-46
2022/03/03 04:11:32;;;;;;;64.55;34.25;;;;;;;;;;6041131;23;20034;-47
2022/03/03 04:13:57;;;;;;;70.75;36.28;;;;;;;;;;6039197;23;20540;-49
2022/03/03 04:16:26;;;;;;;66.88;34.92;;;;;;;;;;6041914;23;20904;-46
2022/03/03 04:18:51;;;;;;;65.82;36.72;;;;;;;;;;6039584;23;20011;-49
2022/03/03 04:21:16;;;;;;;67.20;34.95;;;;;;;;;;6039151;23;20465;-49
2022/03/03 04:23:42;;;;;;;62.55;34.50;;;;;;;;;;6041336;23;20429;-46
2022/03/03 04:26:08;;;;;;;69.30;37.78;;;;;;;;;;6041988;23;20007;-48
2022/03/03 04:28:33;;;;;;;65.43;35.67;;;;;;;;;;6043424;23;20015;-47
2022/03/03 04:30:58;;;;;;;69.38;34.83;;;;;;;;;;6043463;23;20019;-48
2022/03/03 04:33:24;;;;;;;73.13;37.33;;;;;;;;;;6041514;23;20007;-47
2022/03/03 04:35:49;;;;;;;65.53;34.95;;;;;;;;;;6044144;23;20019;-47
2022/03/03 04:38:14;;;;;;;67.15;34.88;;;;;;;;;;6040656;23;20023;-49
2022/03/03 04:40:40;;;;;;;67.20;33.97;;;;;;;;;;6043413;23;20409;-46
2022/03/03 04:43:05;;;;;;;73.30;37.63;;;;;;;;;;6041091;23;20512;-48
2022/03/03 04:45:30;;;;;;;68.88;35.00;;;;;;;;;;6037167;23;20026;-48
2022/03/03 04:47:56;;;;;;;69.00;36.75;;;;;;;;;;6040969;23;20051;-47
2022/03/03 04:50:21;;;;;;;63.15;36.35;;;;;;;;;;6037943;23;20246;-49
2022/03/03 04:52:46;;;;;;;66.70;35.55;;;;;;;;;;6041442;23;20025;-48
2022/03/03 04:55:12;;;;;;;68.28;35.80;;;;;;;;;;6012670;23;20012;-49
2022/03/03 04:57:37;;;;;;;70.95;37.80;;;;;;;;;;6041051;23;20090;-48
2022/03/03 05:00:04;;;;;;;73.25;36.38;;;;;;;;;;6039851;23;20051;-46
2022/03/03 05:02:30;;;;;;;73.63;37.30;;;;;;;;;;6041169;23;20051;-48
2022/03/03 05:04:55;;;;;;;71.82;37.97;;;;;;;;;;6039692;23;20328;-47
2022/03/03 05:07:20;;;;;;;65.05;36.15;;;;;;;;;;6036849;23;20580;-48
2022/03/03 05:09:46;;;;;;;69.13;36.08;;;;;;;;;;6040205;23;20007;-46
2022/03/03 05:12:11;;;;;;;70.32;36.03;;;;;;;;;;6040439;23;20050;-48
2022/03/03 05:14:36;;;;;;;75.32;38.45;;;;;;;;;;6039474;23;20031;-47
2022/03/03 05:17:02;;;;;;;68.60;36.78;;;;;;;;;;6040874;23;20027;-48
2022/03/03 05:19:27;;;;;;;69.13;38.35;;;;;;;;;;6039567;23;20030;-47
2022/03/03 05:21:52;;;;;;;70.43;38.17;;;;;;;;;;6039621;23;20011;-47
2022/03/03 05:24:18;;;;;;;67.85;37.50;;;;;;;;;;6038730;23;20018;-46
2022/03/03 05:26:43;;;;;;;65.95;36.30;;;;;;;;;;6043196;23;20070;-47
2022/03/03 05:29:08;;;;;;;74.40;38.17;;;;;;;;;;6041920;23;20059;-47
2022/03/03 05:31:34;;;;;;;73.38;40.15;;;;;;;;;;6042117;23;20071;-46
2022/03/03 05:33:59;;;;;;;78.38;37.10;;;;;;;;;;6041117;23;20085;-47
2022/03/03 05:36:25;;;;;;;71.53;39.67;;;;;;;;;;6040366;23;20015;-48
2022/03/03 05:38:52;;;;;;;74.13;40.33;;;;;;;;;;6043433;23;20021;-49
2022/03/03 05:41:17;;;;;;;70.82;38.75;;;;;;;;;;6041894;23;20015;-49
2022/03/03 05:43:42;;;;;;;83.30;40.00;;;;;;;;;;6018527;23;20051;-48
2022/03/03 05:46:08;;;;;;;77.25;40.22;;;;;;;;;;6042124;23;20071;-46
2022/03/03 05:48:33;;;;;;;82.10;38.58;;;;;;;;;;6017036;23;20031;-49
2022/03/03 05:50:59;;;;;;;77.97;39.28;;;;;;;;;;6041548;23;20034;-47
2022/03/03 05:53:24;;;;;;;69.63;37.78;;;;;;;;;;6041890;23;20011;-49
2022/03/03 05:55:58;;;;;;;81.43;39.35;;;;;;;;;;6043095;23;20063;-46
2022/03/03 05:58:27;;;;;;;70.88;37.05;;;;;;;;;;6042456;23;20015;-47
2022/03/03 06:00:54;;;;;;;70.22;39.35;;;;;;;;;;6042188;23;20015;-49
2022/03/03 06:03:20;;;;;;;66.38;38.40;;;;;;;;;;6040991;23;20007;-50
2022/03/03 06:05:48;;;;;;;80.50;40.08;;;;;;;;;;6042542;23;20015;-48
2022/03/03 06:08:16;;;;;;;73.97;40.53;;;;;;;;;;6043332;23;20012;-46
2022/03/03 06:10:45;;;;;;;76.85;41.13;;;;;;;;;;6041521;23;20023;-47
2022/03/03 06:13:11;;;;;;;78.57;39.63;;;;;;;;;;6043164;23;20027;-46
2022/03/03 06:15:37;;;;;;;73.43;40.03;;;;;;;;;;6016320;23;20354;-46
2022/03/03 06:18:03;;;;;;;78.28;42.20;;;;;;;;;;6040962;23;20018;-51
2022/03/03 06:20:28;;;;;;;76.30;41.65;;;;;;;;;;6042431;23;20019;-47
2022/03/03 06:22:54;;;;;;;73.25;41.67;;;;;;;;;;6041359;23;20038;-48
2022/03/03 06:25:19;;;;;;;77.07;39.85;;;;;;;;;;6041592;23;20098;-47
2022/03/03 06:27:45;;;;;;;78.53;41.70;;;;;;;;;;6016314;23;20015;-47
2022/03/03 06:30:11;;;;;;;77.55;41.78;;;;;;;;;;6017506;23;20027;-49
2022/03/03 06:32:36;;;;;;;72.03;39.30;;;;;;;;;;6042276;23;20048;-46
2022/03/03 06:35:03;;;;;;;79.35;41.72;;;;;;;;;;6040308;23;20031;-47
2022/03/03 06:37:28;;;;;;;78.55;40.55;;;;;;;;;;6042820;23;20039;-47
2022/03/03 06:39:53;;;;;;;81.55;42.80;;;;;;;;;;6043038;23;20035;-48
2022/03/03 06:42:19;;;;;;;84.03;43.17;;;;;;;;;;6042222;23;20014;-50
2022/03/03 06:44:44;;;;;;;89.53;44.47;;;;;;;;;;6042043;23;20304;-46
2022/03/03 06:47:09;;;;;;;88.15;43.67;;;;;;;;;;6042875;23;20011;-49
2022/03/03 06:49:35;;;;;;;84.32;45.67;;;;;;;;;;6040915;23;20003;-46
2022/03/03 06:52:01;;;;;;;87.63;41.33;;;;;;;;;;6042343;23;20034;-46
2022/03/03 06:54:26;;;;;;;80.65;47.88;;;;;;;;;;6016403;23;20019;-47
2022/03/03 06:56:52;;;;;;;87.38;42.95;;;;;;;;;;6042383;23;20011;-48
2022/03/03 06:59:18;;;;;;;94.13;46.88;;;;;;;;;;6041367;23;20507;-47
2022/03/03 07:01:44;;;;;;;88.20;44.42;;;;;;;;;;6041427;23;20048;-47
2022/03/03 07:04:11;;;;;;;85.00;44.33;;;;;;;;;;6041360;23;20018;-47
2022/03/03 07:06:37;;;;;;;87.72;43.90;;;;;;;;;;6042438;23;20018;-49
2022/03/03 07:09:02;;;;;;;86.47;47.83;;;;;;;;;;6042857;23;20019;-47
2022/03/03 07:11:29;;;;;;;81.18;43.95;;;;;;;;;;6044003;23;20071;-47
2022/03/03 07:13:55;;;;;;;95.10;48.60;;;;;;;;;;6013026;23;20027;-48
2022/03/03 07:16:26;;;;;;;87.22;45.22;;;;;;;;;;6015866;23;20016;-46
2022/03/03 07:18:52;;;;;;;97.05;49.15;;;;;;;;;;6015462;23;20292;-48
2022/03/03 07:21:24;;;;;;;95.20;47.33;;;;;;;;;;6015145;23;20012;-46
2022/03/03 07:23:56;;;;;;;93.90;48.60;;;;;;;;;;6015006;23;20087;-49
2022/03/03 07:26:22;;;;;;;90.68;45.67;;;;;;;;;;6016038;23;20040;-46
2022/03/03 07:28:49;;;;;;;103.70;49.22;;;;;;;;;;6014508;23;20023;-46
2022/03/03 07:31:16;;;;;;;91.78;45.47;;;;;;;;;;6014826;23;20023;-47
2022/03/03 07:33:52;;;;;;;96.63;49.42;;;;;;;;;;6009029;23;20075;-47
2022/03/03 07:36:19;;;;;;;100.72;46.70;;;;;;;;;;6011422;23;20012;-49
2022/03/03 07:38:49;;;;;;;96.55;47.85;;;;;;;;;;6012224;23;20044;-47
2022/03/03 07:41:15;;;;;;;98.47;48.75;;;;;;;;;;6013875;23;20040;-47
2022/03/03 07:43:40;;;;;;;95.65;48.88;;;;;;;;;;6012875;23;20012;-45
2022/03/03 07:46:07;;;;;;;98.28;50.40;;;;;;;;;;6014086;23;20090;-49
2022/03/03 07:48:32;;;;;;;102.65;49.47;;;;;;;;;;6011347;23;20074;-47
2022/03/03 07:50:58;;;;;;;101.10;50.85;;;;;;;;;;6014781;23;20024;-46
2022/03/03 07:53:23;;;;;;;94.97;50.22;;;;;;;;;;6011970;23;20604;-46
2022/03/03 07:55:53;;;;;;;99.45;48.47;;;;;;;;;;6011724;23;20012;-46
2022/03/03 07:58:20;;;;;;;103.28;50.10;;;;;;;;;;6010513;23;20011;-47
2022/03/03 08:00:50;;;;;;;99.75;47.85;;;;;;;;;;6009107;23;20018;-46
2022/03/03 08:03:17;;;;;;;97.35;49.65;;;;;;;;;;6008939;23;20027;-48
2022/03/03 08:05:46;;;;;;;103.43;52.33;;;;;;;;;;6009858;23;20042;-47
2022/03/03 08:08:13;;;;;;;108.95;52.38;;;;;;;;;;6009820;23;20008;-46
2022/03/03 08:10:40;;;;;;;94.45;50.65;;;;;;;;;;6010601;23;20119;-47
2022/03/03 08:13:07;;;;;;;94.25;48.33;;;;;;;;;;6009636;23;20075;-46
2022/03/03 08:15:33;;;;;;;103.65;48.38;;;;;;;;;;5936858;23;20727;-47
2022/03/03 08:17:58;;;;;;;92.85;50.13;;;;;;;;;;6013353;23;20026;-49
2022/03/03 08:20:23;;;;;;;89.75;48.25;;;;;;;;;;6013246;23;20314;-47
2022/03/03 08:22:49;;;;;;;96.50;49.53;;;;;;;;;;6014167;23;20019;-49
2022/03/03 08:25:15;;;;;;;95.35;47.65;;;;;;;;;;6010927;23;20014;-50
2022/03/03 08:27:41;;;;;;;93.93;49.08;;;;;;;;;;6016114;23;20020;-46
2022/03/03 08:30:07;;;;;;;85.00;47.47;;;;;;;;;;6014015;23;20016;-48
2022/03/03 08:32:40;;;;;;;99.22;48.20;;;;;;;;;;6012463;23;20027;-48
2022/03/03 08:35:07;;;;;;;97.55;47.17;;;;;;;;;;6014338;23;20012;-48
2022/03/03 08:37:37;;;;;;;94.68;48.17;;;;;;;;;;6016081;23;20016;-47
2022/03/03 08:40:06;;;;;;;93.43;46.97;;;;;;;;;;6011927;23;20031;-50
2022/03/03 08:42:37;;;;;;;89.45;45.00;;;;;;;;;;6014375;23;20016;-47
2022/03/03 08:45:04;;;;;;;85.20;43.85;;;;;;;;;;6014534;23;20444;-47
2022/03/03 08:47:30;;;;;;;83.95;46.72;;;;;;;;;;6009800;23;20336;-47
2022/03/03 08:49:58;;;;;;;96.40;47.35;;;;;;;;;;6009840;23;20028;-47
2022/03/03 08:52:23;;;;;;;93.25;47.15;;;;;;;;;;6010941;23;20019;-48
2022/03/03 08:54:48;;;;;;;93.60;47.97;;;;;;;;;;6010297;23;20551;-47
2022/03/03 08:57:13;;;;;;;89.63;47.38;;;;;;;;;;6011253;23;20012;-49
2022/03/03 08:59:39;;;;;;;97.07;48.05;;;;;;;;;;6007447;23;20008;-47
2022/03/03 09:02:04;;;;;;;100.63;48.15;;;;;;;;;;6001004;23;20294;-49
2022/03/03 09:04:29;;;;;;;97.65;49.65;;;;;;;;;;6007144;23;20016;-46
2022/03/03 09:06:55;;;;;;;107.88;49.25;;;;;;;;;;6007012;23;20019;-51
2022/03/03 09:09:20;;;;;;;93.03;49.63;;;;;;;;;;6007625;23;20046;-50
2022/03/03 09:11:45;;;;;;;106.10;49.97;;;;;;;;;;6012651;23;20058;-48
2022/03/03 09:14:11;;;;;;;94.30;47.95;;;;;;;;;;6028728;23;20027;-50
2022/03/03 09:16:36;;;;;;;93.38;49.40;;;;;;;;;;6016349;23;20084;-47
2022/03/03 09:19:02;;;;;;;92.00;47.78;;;;;;;;;;6038532;23;20021;-49
2022/03/03 09:21:28;;;;;;;93.82;47.97;;;;;;;;;;6040617;23;20229;-49
2022/03/03 09:23:53;;;;;;;88.13;47.17;;;;;;;;;;6039455;23;20031;-49
2022/03/03 09:26:18;;;;;;;101.40;49.80;;;;;;;;;;6037127;23;20018;-49
2022/03/03 09:28:44;;;;;;;101.78;49.10;;;;;;;;;;6042776;23;20043;-47
2022/03/03 09:31:09;;;;;;;98.65;48.70;;;;;;;;;;6043249;23;20016;-49
2022/03/03 09:33:34;;;;;;;107.75;49.53;;;;;;;;;;6040995;23;20022;-48
2022/03/03 09:35:59;;;;;;;102.57;51.88;;;;;;;;;;6043627;23;20169;-47
2022/03/03 09:38:25;;;;;;;98.50;49.92;;;;;;;;;;6041866;23;20031;-49
2022/03/03 09:40:50;;;;;;;105.28;50.92;;;;;;;;;;6043975;23;20015;-49
2022/03/03 09:43:18;;;;;;;90.15;47.10;;;;;;;;;;6041014;23;20064;-48
2022/03/03 09:45:44;;;;;;;99.80;48.28;;;;;;;;;;6044285;23;20023;-48
2022/03/03 09:48:09;;;;;;;99.40;49.40;;;;;;;;;;6041564;23;20023;-52
2022/03/03 09:50:36;;;;;;;93.38;48.22;;;;;;;;;;6017871;23;20058;-48
2022/03/03 09:53:05;;;;;;;98.47;46.53;;;;;;;;;;6041481;23;20038;-47
2022/03/03 09:55:30;;;;;;;89.60;48.53;;;;;;;;;;6001251;23;20022;-49
2022/03/03 09:57:55;;;;;;;94.50;46.90;;;;;;;;;;6041865;23;20015;-48
2022/03/03 10:00:20;;;;;;;91.30;42.63;;;;;;;;;;6032042;23;20012;-46
2022/03/03 10:02:56;;;;;;;87.00;42.08;;;;;;;;;;6041324;23;20042;-49
2022/03/03 10:05:31;;;;;;;71.20;39.28;;;;;;;;;;6042162;23;20425;-48
2022/03/03 10:08:01;;;;;;;79.05;39.00;;;;;;;;;;6040531;23;20022;-47
2022/03/03 10:10:26;;;;;;;90.63;42.28;;;;;;;;;;6041726;23;20019;-48
2022/03/03 10:12:53;;;;;;;87.88;42.15;;;;;;;;;;6014184;23;20084;-48
2022/03/03 10:15:19;;;;;;;98.10;44.33;;;;;;;;;;6042400;23;20086;-49
2022/03/03 10:17:45;;;;;;;98.57;45.45;;;;;;;;;;6040432;23;20015;-50
2022/03/03 10:20:11;;;;;;;101.32;47.75;;;;;;;;;;6043940;23;20071;-47
2022/03/03 10:22:44;;;;;;;99.30;45.13;;;;;;;;;;6040194;23;20019;-48
2022/03/03 10:25:10;;;;;;;108.50;49.17;;;;;;;;;;6042502;23;20015;-46
2022/03/03 10:27:35;;;;;;;103.97;48.45;;;;;;;;;;6040347;23;20023;-47
2022/03/03 10:30:02;;;;;;;115.55;50.67;;;;;;;;;;6040734;23;20427;-48
2022/03/03 10:32:28;;;;;;;104.25;50.30;;;;;;;;;;6042081;23;20027;-46
2022/03/03 10:34:53;;;;;;;117.05;53.28;;;;;;;;;;6042271;23;20035;-47
2022/03/03 10:37:22;;;;;;;106.78;51.60;;;;;;;;;;6041928;23;20033;-48
2022/03/03 10:39:49;;;;;;;109.63;53.33;;;;;;;;;;6042845;23;20015;-48
2022/03/03 10:42:19;;;;;;;104.63;47.85;;;;;;;;;;6016853;23;20052;-47
2022/03/03 10:44:44;;;;;;;120.90;51.65;;;;;;;;;;6044341;23;20896;-47
2022/03/03 10:47:14;;;;;;;114.25;51.95;;;;;;;;;;6043735;23;20007;-47
2022/03/03 10:49:46;;;;;;;112.72;50.78;;;;;;;;;;6043367;23;20019;-49
2022/03/03 10:52:16;;;;;;;111.95;50.88;;;;;;;;;;6043949;23;20404;-48
2022/03/03 10:54:52;;;;;;;107.30;50.50;;;;;;;;;;6042332;23;20022;-50
2022/03/03 10:57:32;;;;;;;105.72;48.90;;;;;;;;;;6018340;23;20103;-48
2022/03/03 10:59:59;;;;;;;104.25;48.15;;;;;;;;;;6019953;23;20011;-48
2022/03/03 11:02:28;;;;;;;101.63;48.55;;;;;;;;;;6035740;23;20018;-47
2022/03/03 11:04:55;;;;;;;105.00;49.35;;;;;;;;;;6044688;23;20400;-46
2022/03/03 11:07:21;;;;;;;91.63;44.03;;;;;;;;;;6014115;23;20022;-46
2022/03/03 11:09:46;;;;;;;89.85;42.60;;;;;;;;;;6045297;23;20004;-50
2022/03/03 11:12:12;;;;;;;92.95;45.13;;;;;;;;;;6016544;23;20071;-48
2022/03/03 11:14:37;;;;;;;89.38;42.83;;;;;;;;;;6044738;23;20031;-50
2022/03/03 11:17:03;;;;;;;74.88;37.72;;;;;;;;;;6042816;23;20031;-47
2022/03/03 11:19:29;;;;;;;82.80;38.30;;;;;;;;;;6042925;23;20023;-49
2022/03/03 11:21:54;;;;;;;84.72;39.92;;;;;;;;;;6043843;23;20408;-48
2022/03/03 11:24:21;;;;;;;61.72;33.05;;;;;;;;;;6040665;23;20178;-48
2022/03/03 11:26:48;;;;;;;72.38;36.53;;;;;;;;;;6018552;23;20007;-47
2022/03/03 11:29:17;;;;;;;73.15;36.40;;;;;;;;;;6044819;23;20015;-48
2022/03/03 11:31:44;;;;;;;68.85;34.47;;;;;;;;;;6043400;23;20059;-48
2022/03/03 11:34:30;;;;;;;67.70;33.42;;;;;;;;;;6043643;23;20057;-48
2022/03/03 11:37:18;;;;;;;64.65;35.20;;;;;;;;;;6042147;23;20026;-49
2022/03/03 11:39:46;;;;;;;77.35;34.72;;;;;;;;;;6031405;23;20028;-47
2022/03/03 11:42:15;;;;;;;81.80;36.53;;;;;;;;;;6042966;23;20019;-50
2022/03/03 11:44:41;;;;;;;68.95;33.97;;;;;;;;;;6043061;23;20017;-48
2022/03/03 11:47:17;;;;;;;68.63;34.20;;;;;;;;;;6044079;23;20011;-46
2022/03/03 11:49:57;;;;;;;69.35;34.72;;;;;;;;;;6042186;23;20059;-48
2022/03/03 11:52:22;;;;;;;;;;;;;;;;;;6044005;23;20043;-48
2022/03/03 11:54:52;;;;;;;59.83;30.85;;;;;;;;;;6042483;23;19905;-47
2022/03/03 11:57:23;;;;;;;54.55;25.52;;;;;;;;;;6042757;23;20034;-52
2022/03/03 11:59:49;;;;;;;54.83;27.98;;;;;;;;;;6039479;23;20460;-47
2022/03/03 12:02:18;;;;;;;42.28;22.23;;;;;;;;;;6043651;23;20034;-52
2022/03/03 12:04:44;;;;;;;41.38;21.83;;;;;;;;;;6042780;23;20037;-51
2022/03/03 12:07:28;;;;;;;40.90;21.27;;;;;;;;;;6037544;23;20007;-49
2022/03/03 12:09:54;;;;;;;39.97;21.55;;;;;;;;;;6039158;23;20008;-51
2022/03/03 12:12:19;;;;;;;40.40;22.20;;;;;;;;;;6038116;23;20023;-49
2022/03/03 12:14:49;;;;;;;45.83;23.63;;;;;;;;;;6018177;23;20023;-50
2022/03/03 12:17:32;;;;;;;39.83;20.58;;;;;;;;;;6015424;23;20081;-51
2022/03/03 12:20:18;;;;;;;36.72;20.52;;;;;;;;;;6037576;23;20018;-50
2022/03/03 12:23:09;;;;;;;39.00;19.40;;;;;;;;;;6037959;23;20681;-48
2022/03/03 12:25:50;;;;;;;37.72;20.27;;;;;;;;;;6031679;23;20073;-47
2022/03/03 12:28:15;;;;;;;42.25;20.58;;;;;;;;;;6039883;23;20019;-48
2022/03/03 12:30:44;;;;;;;40.20;21.27;;;;;;;;;;6039578;23;20042;-48
2022/03/03 12:33:18;;;;;;;39.72;21.13;;;;;;;;;;6013011;23;20012;-46
2022/03/03 12:35:44;;;;;;;37.45;20.52;;;;;;;;;;6040339;23;20011;-51
2022/03/03 12:38:10;;;;;;;38.55;20.55;;;;;;;;;;6039161;23;20011;-47
2022/03/03 12:40:36;;;;;;;33.50;20.83;;;;;;;;;;6035655;23;20044;-47
2022/03/03 12:43:02;;;;;;;34.08;19.67;;;;;;;;;;6012833;23;20031;-46
2022/03/03 12:45:29;;;;;;;34.20;20.30;;;;;;;;;;6039396;23;20026;-50
2022/03/03 12:47:54;;;;;;;32.78;19.20;;;;;;;;;;6037923;23;20011;-49
2022/03/03 12:50:20;;;;;;;31.90;17.55;;;;;;;;;;6038554;23;20038;-46
2022/03/03 12:53:05;;;;;;;35.88;18.38;;;;;;;;;;6035760;23;20020;-48
2022/03/03 12:55:31;;;;;;;38.05;20.08;;;;;;;;;;6039129;23;20029;-49
2022/03/03 12:57:57;;;;;;;39.70;19.45;;;;;;;;;;6038250;23;20079;-47
2022/03/03 13:00:23;;;;;;;33.55;18.25;;;;;;;;;;6040710;23;20247;-46
2022/03/03 13:02:49;;;;;;;37.53;20.42;;;;;;;;;;6040228;23;20089;-47
2022/03/03 13:05:27;;;;;;;29.35;17.77;;;;;;;;;;6042253;23;20040;-51
2022/03/03 13:07:52;;;;;;;31.02;18.15;;;;;;;;;;6041505;23;20018;-49
2022/03/03 13:10:17;;;;;;;37.90;18.92;;;;;;;;;;6042950;23;20015;-51
2022/03/03 13:12:46;;;;;;;35.85;18.58;;;;;;;;;;6010241;23;20027;-47
2022/03/03 13:15:12;;;;;;;32.63;18.23;;;;;;;;;;6042762;23;20015;-48
2022/03/03 13:17:55;;;;;;;35.83;18.65;;;;;;;;;;6037794;23;20040;-50
2022/03/03 13:20:20;;;;;;;28.88;16.60;;;;;;;;;;6043806;23;20008;-53
2022/03/03 13:22:46;;;;;;;21.45;13.27;;;;;;;;;;6036648;23;20019;-48
2022/03/03 13:25:18;;;;;;;23.77;14.18;;;;;;;;;;6043398;23;20011;-47
2022/03/03 13:27:48;;;;;;;17.75;10.88;;;;;;;;;;6039965;23;20110;-46
2022/03/03 13:30:14;;;;;;;17.90;11.85;;;;;;;;;;6042246;23;20015;-48
2022/03/03 13:32:43;;;;;;;18.52;10.45;;;;;;;;;;6043288;23;20022;-49
2022/03/03 13:35:08;;;;;;;19.60;10.27;;;;;;;;;;6041967;23;20019;-50
2022/03/03 13:37:34;;;;;;;18.95;9.38;;;;;;;;;;6042980;23;20016;-47
2022/03/03 13:40:10;;;;;;;18.20;11.32;;;;;;;;;;6041423;23;20023;-47
2022/03/03 13:42:37;;;;;;;15.32;10.05;;;;;;;;;;6043519;23;20067;-48
2022/03/03 13:45:03;;;;;;;15.75;9.50;;;;;;;;;;6041565;23;20067;-48
2022/03/03 13:47:30;;;;;;;17.10;9.70;;;;;;;;;;6042523;23;20030;-48
2022/03/03 13:49:55;;;;;;;18.90;9.40;;;;;;;;;;6041131;23;20012;-49
2022/03/03 13:52:33;;;;;;;13.13;8.18;;;;;;;;;;6042301;23;20091;-46
2022/03/03 13:55:07;;;;;;;13.50;8.40;;;;;;;;;;6040891;23;20022;-47
2022/03/03 13:57:32;;;;;;;15.02;8.90;;;;;;;;;;6040966;23;20075;-47
2022/03/03 13:59:59;;;;;;;12.00;7.72;;;;;;;;;;6042375;23;20234;-51
2022/03/03 14:02:25;;;;;;;16.52;8.75;;;;;;;;;;6040911;23;20022;-48
2022/03/03 14:05:00;;;;;;;13.68;8.13;;;;;;;;;;6038358;23;20022;-50
2022/03/03 14:07:30;;;;;;;13.63;7.78;;;;;;;;;;6041622;23;20019;-48
2022/03/03 14:09:59;;;;;;;14.70;7.63;;;;;;;;;;6040972;23;20011;-47
2022/03/03 14:12:25;;;;;;;11.45;8.13;;;;;;;;;;6040555;23;20501;-48
2022/03/03 14:14:50;;;;;;;15.00;8.45;;;;;;;;;;6018099;23;20071;-48